createdAt,value
2023-08-12T00:00:12.846Z,3.10
2023-08-12T00:02:41.660Z,3.78
2023-08-12T00:05:12.080Z,3.88
2023-08-12T00:07:42.300Z,3.45
2023-08-12T00:10:12.797Z,3.28
2023-08-12T00:12:41.548Z,3.47
2023-08-12T00:15:11.703Z,3.28
2023-08-12T00:17:42.949Z,3.33
2023-08-12T00:20:12.617Z,3.08
2023-08-12T00:22:41.827Z,2.58
2023-08-12T00:25:12.048Z,3.42
2023-08-12T00:27:40.444Z,2.78
2023-08-12T00:30:09.413Z,2.58
2023-08-12T00:32:37.948Z,2.95
2023-08-12T00:35:06.642Z,2.90
2023-08-12T00:37:35.069Z,2.55
2023-08-12T00:40:03.627Z,2.50
2023-08-12T00:42:33.429Z,3.03
2023-08-12T00:45:01.841Z,2.40
2023-08-12T00:50:00.357Z,2.60
2023-08-12T00:52:28.970Z,2.50
2023-08-12T00:54:57.814Z,2.83
2023-08-12T00:57:26.436Z,2.60
2023-08-12T00:59:57.368Z,2.60
2023-08-12T01:02:25.972Z,2.70
2023-08-12T01:04:54.946Z,2.00
2023-08-12T01:07:23.403Z,2.42
2023-08-12T01:09:51.905Z,2.40
2023-08-12T01:12:21.563Z,2.80
2023-08-12T01:14:54.050Z,2.58
2023-08-12T01:17:23.873Z,2.53
2023-08-12T01:19:52.764Z,2.45
2023-08-12T01:22:23.831Z,2.28
2023-08-12T01:24:54.492Z,2.70
2023-08-12T01:27:22.928Z,2.63
2023-08-12T01:29:52.996Z,3.03
2023-08-12T01:32:24.766Z,2.63
2023-08-12T01:34:56.370Z,2.42
2023-08-12T01:37:26.406Z,2.33
2023-08-12T01:39:57.648Z,2.50
2023-08-12T01:42:26.649Z,2.55
2023-08-12T01:44:55.341Z,2.03
2023-08-12T01:47:23.798Z,2.10
2023-08-12T01:49:52.272Z,2.38
2023-08-12T01:52:20.665Z,2.70
2023-08-12T01:54:49.105Z,2.58
2023-08-12T01:57:18.958Z,2.40
2023-08-12T01:59:47.415Z,2.33
2023-08-12T02:02:15.946Z,2.28
2023-08-12T02:04:45.263Z,2.55
2023-08-12T02:07:13.899Z,2.10
2023-08-12T02:09:42.465Z,2.10
2023-08-12T02:12:10.861Z,2.28
2023-08-12T02:14:40.633Z,2.20
2023-08-12T02:17:09.299Z,1.85
2023-08-12T02:19:38.127Z,2.17
2023-08-12T02:22:07.106Z,2.10
2023-08-12T02:24:35.493Z,2.20
2023-08-12T02:27:03.969Z,2.03
2023-08-12T02:29:32.381Z,2.42
2023-08-12T02:32:02.338Z,1.70
2023-08-12T02:34:30.754Z,2.30
2023-08-12T02:36:59.207Z,2.40
2023-08-12T02:39:27.619Z,2.38
2023-08-12T02:41:56.022Z,2.25
2023-08-12T02:44:24.406Z,2.55
2023-08-12T02:46:52.903Z,2.30
2023-08-12T02:49:22.664Z,2.58
2023-08-12T02:51:51.068Z,2.40
2023-08-12T02:54:19.503Z,2.85
2023-08-12T02:56:48.001Z,3.00
2023-08-12T02:59:16.388Z,3.00
2023-08-12T03:01:44.968Z,2.20
2023-08-12T03:04:13.339Z,2.75
2023-08-12T03:06:43.106Z,2.65
2023-08-12T03:09:11.632Z,2.83
2023-08-12T03:11:40.042Z,2.67
2023-08-12T03:14:08.472Z,2.45
2023-08-12T03:16:36.929Z,2.70
2023-08-12T03:19:05.380Z,2.53
2023-08-12T03:21:33.849Z,2.53
2023-08-12T03:24:03.634Z,2.90
2023-08-12T03:26:32.050Z,2.35
2023-08-12T03:29:00.508Z,2.70
2023-08-12T03:31:28.954Z,2.60
2023-08-12T03:33:57.453Z,2.33
2023-08-12T03:36:25.896Z,2.10
2023-08-12T03:38:54.409Z,2.30
2023-08-12T03:41:24.210Z,2.33
2023-08-12T03:43:52.671Z,2.10
2023-08-12T03:46:21.267Z,1.90
2023-08-12T03:48:49.731Z,2.30
2023-08-12T03:51:18.167Z,2.33
2023-08-12T03:53:46.624Z,2.17
2023-08-12T03:56:17.504Z,2.28
2023-08-12T03:58:47.335Z,2.13
2023-08-12T04:01:15.824Z,2.28
2023-08-12T04:03:44.369Z,2.63
2023-08-12T04:06:12.867Z,2.15
2023-08-12T04:08:41.402Z,2.33
2023-08-12T04:11:09.866Z,2.20
2023-08-12T04:13:38.297Z,2.72
2023-08-12T04:16:08.188Z,2.38
2023-08-12T04:18:36.654Z,2.28
2023-08-12T04:21:05.281Z,2.20
2023-08-12T04:23:33.704Z,2.40
2023-08-12T04:26:02.173Z,2.05
2023-08-12T04:28:30.638Z,2.17
2023-08-12T04:30:59.077Z,2.15
2023-08-12T04:33:29.084Z,2.25
2023-08-12T04:35:58.171Z,1.92
2023-08-12T04:38:26.639Z,1.85
2023-08-12T04:40:55.779Z,2.35
2023-08-12T04:43:24.297Z,2.38
2023-08-12T04:45:53.106Z,2.30
2023-08-12T04:48:21.562Z,2.30
2023-08-12T04:50:51.401Z,2.70
2023-08-12T04:53:19.779Z,2.53
2023-08-12T04:55:48.296Z,1.90
2023-08-12T04:58:16.700Z,2.25
2023-08-12T05:00:45.113Z,2.03
2023-08-12T05:03:13.628Z,2.13
2023-08-12T05:05:42.109Z,2.40
2023-08-12T05:08:11.889Z,2.20
2023-08-12T05:10:40.345Z,2.10
2023-08-12T05:13:08.748Z,2.30
2023-08-12T05:15:38.142Z,2.17
2023-08-12T05:18:07.133Z,2.50
2023-08-12T05:20:35.800Z,2.20
2023-08-12T05:23:04.217Z,2.17
2023-08-12T05:25:33.962Z,2.30
2023-08-12T05:28:02.386Z,2.40
2023-08-12T05:30:30.841Z,2.40
2023-08-12T05:32:59.346Z,2.15
2023-08-12T05:35:28.277Z,2.50
2023-08-12T05:37:56.929Z,2.10
2023-08-12T05:40:25.514Z,2.38
2023-08-12T05:42:55.743Z,2.70
2023-08-12T05:45:24.332Z,2.50
2023-08-12T05:47:52.811Z,2.50
2023-08-12T05:50:21.261Z,2.30
2023-08-12T05:52:49.683Z,2.28
2023-08-12T05:55:18.272Z,2.10
2023-08-12T05:57:46.691Z,2.10
2023-08-12T06:00:16.703Z,2.03
2023-08-12T06:02:45.166Z,2.03
2023-08-12T06:05:13.578Z,1.88
2023-08-12T06:07:41.998Z,2.00
2023-08-12T06:10:10.721Z,1.63
2023-08-12T06:12:39.481Z,1.90
2023-08-12T06:15:08.413Z,1.55
2023-08-12T06:17:38.241Z,1.55
2023-08-12T06:20:07.131Z,1.88
2023-08-12T06:22:35.616Z,1.60
2023-08-12T06:25:04.083Z,1.48
2023-08-12T06:27:32.579Z,1.52
2023-08-12T06:30:01.043Z,1.33
2023-08-12T06:32:29.586Z,1.30
2023-08-12T06:34:59.454Z,1.33
2023-08-12T06:37:27.926Z,1.15
2023-08-12T06:39:56.395Z,1.33
2023-08-12T06:42:24.881Z,1.17
2023-08-12T06:45:02.134Z,1.30
2023-08-12T06:47:30.925Z,1.63
2023-08-12T06:50:01.040Z,1.17
2023-08-12T06:52:29.524Z,1.33
2023-08-12T06:54:57.984Z,1.00
2023-08-12T06:57:26.424Z,1.48
2023-08-12T06:59:54.884Z,1.42
2023-08-12T07:02:23.339Z,1.27
2023-08-12T07:04:51.850Z,1.40
2023-08-12T07:07:21.972Z,1.30
2023-08-12T07:09:50.522Z,1.17
2023-08-12T07:12:18.940Z,1.48
2023-08-12T07:14:47.398Z,1.35
2023-08-12T07:17:15.866Z,1.40
2023-08-12T07:19:44.305Z,1.35
2023-08-12T07:22:13.025Z,1.60
2023-08-12T07:24:43.115Z,1.33
2023-08-12T07:27:11.490Z,1.73
2023-08-12T07:29:40.022Z,1.38
2023-08-12T07:32:08.660Z,1.48
2023-08-12T07:34:37.087Z,1.40
2023-08-12T07:37:05.756Z,1.42
2023-08-12T07:39:34.177Z,1.30
2023-08-12T07:42:04.377Z,1.30
2023-08-12T07:44:32.865Z,1.10
2023-08-12T07:47:01.357Z,1.20
2023-08-12T07:49:29.824Z,1.17
2023-08-12T07:51:58.254Z,0.80
2023-08-12T07:54:26.891Z,0.80
2023-08-12T07:56:55.728Z,0.60
2023-08-12T07:59:26.926Z,0.80
2023-08-12T08:01:55.474Z,0.77
2023-08-12T08:04:23.943Z,1.00
2023-08-12T08:06:52.388Z,0.70
2023-08-12T08:09:20.871Z,0.73
2023-08-12T08:11:49.295Z,0.80
2023-08-12T08:14:17.774Z,0.60
2023-08-12T08:16:47.640Z,0.80
2023-08-12T08:19:16.060Z,0.70
2023-08-12T08:21:44.494Z,0.60
2023-08-12T08:24:13.943Z,0.60
2023-08-12T08:26:42.795Z,0.50
2023-08-12T08:29:11.276Z,0.60
2023-08-12T08:31:39.744Z,0.68
2023-08-12T08:34:10.792Z,0.85
2023-08-12T08:36:39.306Z,0.90
2023-08-12T08:39:07.810Z,0.60
2023-08-12T08:41:39.003Z,0.73
2023-08-12T08:44:09.421Z,0.77
2023-08-12T08:46:38.380Z,0.90
2023-08-12T08:49:07.347Z,0.65
2023-08-12T08:51:37.914Z,0.60
2023-08-12T08:54:06.619Z,0.68
2023-08-12T08:56:37.154Z,0.60
2023-08-12T08:59:11.903Z,0.80
2023-08-12T09:01:40.942Z,0.70
2023-08-12T09:04:09.961Z,0.85
2023-08-12T09:06:39.850Z,0.63
2023-08-12T09:09:08.866Z,0.80
2023-08-12T09:11:37.491Z,0.85
2023-08-12T09:14:06.133Z,0.60
2023-08-12T09:16:35.103Z,0.63
2023-08-12T09:19:03.620Z,0.88
2023-08-12T09:21:32.078Z,0.80
2023-08-12T09:24:05.559Z,0.77
2023-08-12T09:26:34.058Z,0.88
2023-08-12T09:29:02.508Z,0.88
2023-08-12T09:31:33.559Z,0.80
2023-08-12T09:34:02.918Z,1.00
2023-08-12T09:36:32.266Z,0.88
2023-08-12T09:39:02.071Z,0.85
2023-08-12T09:41:30.563Z,0.85
2023-08-12T09:43:59.092Z,0.85
2023-08-12T09:46:28.894Z,0.93
2023-08-12T09:48:57.537Z,1.20
2023-08-12T09:51:26.029Z,1.00
2023-08-12T09:53:54.674Z,1.05
2023-08-12T09:56:25.918Z,0.95
2023-08-12T09:58:55.582Z,1.00
2023-08-12T10:01:24.382Z,1.17
2023-08-12T10:03:53.776Z,1.30
2023-08-12T10:06:22.528Z,1.15
2023-08-12T10:08:51.220Z,1.10
2023-08-12T10:11:19.676Z,1.50
2023-08-12T10:13:50.018Z,1.35
2023-08-12T10:16:18.896Z,1.10
2023-08-12T10:18:49.093Z,1.30
2023-08-12T10:21:18.429Z,1.50
2023-08-12T10:23:47.977Z,1.30
2023-08-12T10:26:17.397Z,1.23
2023-08-12T10:28:45.937Z,1.52
2023-08-12T10:31:15.782Z,1.75
2023-08-12T10:33:44.720Z,1.30
2023-08-12T10:36:13.477Z,1.40
2023-08-12T10:38:41.943Z,1.50
2023-08-12T10:41:20.064Z,1.25
2023-08-12T10:43:51.916Z,1.33
2023-08-12T10:46:25.867Z,1.20
2023-08-12T10:49:02.911Z,1.20
2023-08-12T10:51:44.416Z,1.20
2023-08-12T10:54:13.908Z,1.25
2023-08-12T10:56:57.176Z,1.20
2023-08-12T10:59:40.438Z,1.05
2023-08-12T11:02:15.973Z,1.20
2023-08-12T11:04:48.038Z,1.25
2023-08-12T11:07:19.653Z,1.60
2023-08-12T11:09:49.618Z,1.42
2023-08-12T11:12:20.354Z,1.20
2023-08-12T11:14:51.667Z,1.25
2023-08-12T11:17:21.498Z,1.27
2023-08-12T11:19:51.001Z,1.40
2023-08-12T11:22:19.449Z,1.15
2023-08-12T11:24:47.967Z,1.38
2023-08-12T11:27:16.952Z,1.40
2023-08-12T11:29:45.388Z,1.25
2023-08-12T11:32:15.015Z,1.30
2023-08-12T11:34:45.689Z,1.38
2023-08-12T11:37:14.248Z,1.40
2023-08-12T11:39:46.972Z,1.02
2023-08-12T11:42:16.015Z,1.27
2023-08-12T11:44:44.599Z,1.10
2023-08-12T11:47:16.057Z,0.98
2023-08-12T11:49:45.813Z,1.17
2023-08-12T11:52:14.579Z,1.10
2023-08-12T11:54:43.434Z,1.23
2023-08-12T11:57:11.968Z,1.20
2023-08-12T11:59:40.433Z,1.30
2023-08-12T12:02:08.951Z,1.08
2023-08-12T12:04:37.537Z,1.20
2023-08-12T12:07:19.579Z,0.95
2023-08-12T12:09:48.960Z,1.05
2023-08-12T12:12:18.383Z,1.08
2023-08-12T12:14:46.856Z,1.63
2023-08-12T12:17:15.304Z,0.90
2023-08-12T12:19:44.042Z,1.02
2023-08-12T12:22:14.109Z,0.90
2023-08-12T12:24:49.055Z,0.80
2023-08-12T12:27:17.558Z,1.15
2023-08-12T12:29:46.023Z,0.80
2023-08-12T12:32:16.770Z,0.82
2023-08-12T12:34:45.191Z,0.95
2023-08-12T12:37:15.092Z,0.63
2023-08-12T12:39:46.011Z,1.20
2023-08-12T12:42:17.474Z,0.73
2023-08-12T12:44:48.677Z,0.88
2023-08-12T12:47:17.268Z,0.98
2023-08-12T12:49:46.682Z,0.90
2023-08-12T12:52:16.588Z,1.00
2023-08-12T12:54:53.819Z,1.00
2023-08-12T12:57:24.644Z,0.90
2023-08-12T12:59:53.111Z,1.10
2023-08-12T13:02:21.745Z,1.08
2023-08-12T13:04:51.001Z,1.30
2023-08-12T13:07:20.831Z,1.25
2023-08-12T13:09:49.631Z,0.98
2023-08-12T13:12:18.081Z,0.90
2023-08-12T13:14:46.693Z,1.10
2023-08-12T13:17:15.166Z,1.02
2023-08-12T13:19:43.658Z,1.35
2023-08-12T13:22:12.366Z,1.23
2023-08-12T13:24:42.460Z,1.33
2023-08-12T13:27:11.365Z,0.90
2023-08-12T13:29:39.847Z,0.85
2023-08-12T13:32:08.335Z,0.90
2023-08-12T13:34:36.856Z,0.95
2023-08-12T13:37:05.596Z,1.00
2023-08-12T13:39:34.098Z,1.10
2023-08-12T13:42:03.980Z,0.90
2023-08-12T13:44:32.373Z,0.90
2023-08-12T13:47:00.923Z,0.98
2023-08-12T13:49:29.451Z,1.00
2023-08-12T13:51:57.899Z,0.88
2023-08-12T13:54:26.425Z,1.17
2023-08-12T13:56:54.870Z,0.90
2023-08-12T13:59:24.753Z,1.10
2023-08-12T14:01:53.210Z,0.98
2023-08-12T14:04:21.720Z,0.90
2023-08-12T14:06:52.660Z,1.10
2023-08-12T14:09:21.563Z,1.10
2023-08-12T14:11:50.163Z,0.88
2023-08-12T14:14:18.557Z,1.10
2023-08-12T14:16:48.506Z,1.17
2023-08-12T14:19:18.875Z,1.00
2023-08-12T14:21:47.666Z,0.80
2023-08-12T14:24:16.139Z,1.08
2023-08-12T14:26:44.636Z,0.75
2023-08-12T14:29:13.168Z,0.90
2023-08-12T14:31:41.743Z,1.00
2023-08-12T14:34:11.581Z,1.35
2023-08-12T14:36:40.020Z,1.02
2023-08-12T14:39:08.670Z,0.90
2023-08-12T14:41:37.073Z,1.33
2023-08-12T14:44:05.803Z,1.08
2023-08-12T14:46:34.304Z,1.13
2023-08-12T14:49:03.082Z,1.10
2023-08-12T14:51:32.881Z,0.88
2023-08-12T14:54:01.341Z,1.00
2023-08-12T14:56:29.716Z,1.00
2023-08-12T14:58:58.143Z,0.90
2023-08-12T15:01:29.049Z,1.20
2023-08-12T15:03:57.769Z,1.00
2023-08-12T15:06:26.464Z,1.20
2023-08-12T15:08:56.345Z,0.70
2023-08-12T15:11:25.026Z,1.20
2023-08-12T15:13:53.463Z,1.30
2023-08-12T15:16:22.137Z,1.30
2023-08-12T15:18:50.575Z,1.15
2023-08-12T15:21:19.146Z,1.25
2023-08-12T15:23:47.561Z,1.10
2023-08-12T15:26:18.625Z,1.00
2023-08-12T15:28:47.024Z,1.00
2023-08-12T15:31:16.006Z,1.10
2023-08-12T15:33:44.565Z,1.20
2023-08-12T15:36:12.997Z,0.95
2023-08-12T15:38:42.780Z,1.10
2023-08-12T15:41:15.728Z,0.77
2023-08-12T15:43:45.830Z,1.20
2023-08-12T15:46:14.362Z,1.30
2023-08-12T15:48:43.960Z,1.00
2023-08-12T15:51:12.810Z,1.20
2023-08-12T15:53:41.287Z,1.08
2023-08-12T15:56:12.133Z,1.10
2023-08-12T15:58:40.663Z,1.10
2023-08-12T16:01:11.880Z,1.50
2023-08-12T16:03:40.433Z,1.27
2023-08-12T16:06:09.128Z,1.15
2023-08-12T16:08:37.555Z,1.30
2023-08-12T16:11:06.061Z,1.30
2023-08-12T16:13:34.509Z,1.30
2023-08-12T16:16:04.254Z,1.10
2023-08-12T16:18:34.041Z,1.45
2023-08-12T16:21:02.512Z,1.25
2023-08-12T16:23:32.890Z,1.35
2023-08-12T16:26:04.314Z,1.30
2023-08-12T16:28:32.777Z,1.70
2023-08-12T16:31:01.714Z,1.40
2023-08-12T16:33:30.285Z,1.40
2023-08-12T16:36:00.084Z,1.40
2023-08-12T16:38:28.504Z,1.40
2023-08-12T16:40:56.922Z,1.10
2023-08-12T16:43:25.359Z,1.40
2023-08-12T16:45:53.955Z,1.42
2023-08-12T16:48:22.522Z,1.48
2023-08-12T16:50:50.968Z,1.20
2023-08-12T16:53:20.790Z,1.58
2023-08-12T16:55:49.223Z,1.50
2023-08-12T16:58:18.342Z,1.23
2023-08-12T17:00:47.711Z,1.27
2023-08-12T17:03:16.388Z,1.40
2023-08-12T17:05:44.881Z,1.45
2023-08-12T17:08:13.324Z,1.50
2023-08-12T17:10:43.190Z,1.30
2023-08-12T17:13:13.164Z,1.38
2023-08-12T17:15:44.445Z,1.17
2023-08-12T17:18:14.694Z,1.40
2023-08-12T17:20:43.155Z,1.30
2023-08-12T17:23:11.617Z,1.45
2023-08-12T17:25:40.090Z,1.50
2023-08-12T17:28:09.985Z,1.27
2023-08-12T17:30:38.553Z,1.38
2023-08-12T17:33:07.279Z,1.15
2023-08-12T17:35:35.761Z,1.80
2023-08-12T17:38:04.277Z,1.30
2023-08-12T17:40:32.712Z,1.10
2023-08-12T17:43:01.126Z,1.60
2023-08-12T17:45:32.562Z,1.33
2023-08-12T17:48:01.689Z,1.38
2023-08-12T17:50:30.316Z,1.30
2023-08-12T17:52:58.807Z,1.55
2023-08-12T17:55:27.292Z,1.13
2023-08-12T17:57:55.784Z,1.60
2023-08-12T18:00:24.567Z,1.42
2023-08-12T18:02:54.483Z,1.23
2023-08-12T18:05:23.141Z,1.60
2023-08-12T18:07:51.620Z,1.30
2023-08-12T18:10:20.118Z,1.45
2023-08-12T18:12:48.577Z,1.63
2023-08-12T18:15:17.077Z,1.80
2023-08-12T18:17:45.543Z,1.17
2023-08-12T18:20:15.968Z,1.30
2023-08-12T18:22:44.417Z,1.30
2023-08-12T18:25:12.900Z,1.38
2023-08-12T18:27:41.405Z,1.33
2023-08-12T18:30:10.293Z,1.40
2023-08-12T18:32:38.880Z,1.38
2023-08-12T18:35:07.701Z,1.70
2023-08-12T18:37:37.586Z,1.30
2023-08-12T18:40:08.711Z,1.42
2023-08-12T18:42:38.377Z,1.00
2023-08-12T18:45:07.146Z,1.30
2023-08-12T18:47:39.013Z,1.48
2023-08-12T18:50:12.825Z,1.48
2023-08-12T18:52:45.678Z,1.20
2023-08-12T18:55:14.430Z,1.23
2023-08-12T18:57:42.860Z,1.25
2023-08-12T19:00:14.898Z,1.55
2023-08-12T19:02:43.420Z,1.30
2023-08-12T19:05:14.208Z,1.83
2023-08-12T19:07:44.064Z,1.58
2023-08-12T19:10:12.622Z,2.08
2023-08-12T19:12:41.100Z,1.30
2023-08-12T19:15:10.171Z,2.28
2023-08-12T19:17:38.636Z,1.40
2023-08-12T19:20:09.326Z,1.30
2023-08-12T19:22:37.917Z,1.42
2023-08-12T19:25:09.065Z,1.58
2023-08-12T19:27:37.520Z,1.65
2023-08-12T19:30:06.171Z,1.45
2023-08-12T19:32:37.690Z,1.20
2023-08-12T19:35:06.770Z,1.30
2023-08-12T19:37:35.219Z,1.20
2023-08-12T19:40:03.984Z,1.23
2023-08-12T19:42:34.057Z,1.15
2023-08-12T19:45:02.518Z,1.42
2023-08-12T19:47:31.234Z,1.60
2023-08-12T19:50:01.929Z,1.48
2023-08-12T19:52:31.097Z,1.70
2023-08-12T19:54:59.600Z,1.30
2023-08-12T19:57:27.990Z,1.40
2023-08-12T20:00:00.143Z,1.42
2023-08-12T20:02:37.739Z,1.55
2023-08-12T20:05:13.940Z,1.15
2023-08-12T20:07:42.384Z,1.55
2023-08-12T20:10:11.749Z,1.30
2023-08-12T20:12:40.250Z,1.40
2023-08-12T20:15:10.876Z,1.45
2023-08-12T20:17:39.825Z,1.73
2023-08-12T20:20:13.036Z,1.20
2023-08-12T20:22:54.405Z,1.80
2023-08-12T20:25:31.637Z,1.42
2023-08-12T20:28:00.237Z,1.30
2023-08-12T20:30:30.217Z,1.50
2023-08-12T20:32:58.683Z,1.58
2023-08-12T20:35:27.175Z,1.60
2023-08-12T20:37:55.585Z,1.70
2023-08-12T20:40:24.199Z,1.75
2023-08-12T20:42:52.620Z,1.58
2023-08-12T20:45:21.038Z,1.55
2023-08-12T20:47:50.854Z,2.22
2023-08-12T20:50:19.393Z,1.80
2023-08-12T20:52:47.970Z,1.42
2023-08-12T20:55:16.455Z,1.42
2023-08-12T20:57:44.969Z,1.20
2023-08-12T21:00:14.393Z,1.88
2023-08-12T21:02:45.288Z,1.38
2023-08-12T21:05:15.315Z,1.58
2023-08-12T21:07:43.993Z,1.45
2023-08-12T21:10:13.139Z,1.25
2023-08-12T21:12:41.650Z,1.48
2023-08-12T21:15:10.462Z,1.42
2023-08-12T21:17:38.945Z,1.70
2023-08-12T21:20:08.346Z,1.38
2023-08-12T21:22:38.176Z,1.58
2023-08-12T21:25:07.154Z,1.80
2023-08-12T21:27:35.634Z,1.30
2023-08-12T21:30:04.209Z,1.48
2023-08-12T21:32:34.127Z,1.30
2023-08-12T21:35:03.137Z,1.40
2023-08-12T21:37:31.586Z,1.83
2023-08-12T21:40:01.596Z,1.10
2023-08-12T21:42:30.065Z,1.50
2023-08-12T21:44:58.549Z,1.42
2023-08-12T21:47:27.079Z,1.60
2023-08-12T21:49:55.529Z,1.60
2023-08-12T21:52:24.005Z,1.17
2023-08-12T21:54:52.413Z,1.20
2023-08-12T21:57:22.230Z,1.92
2023-08-12T21:59:50.679Z,1.60
2023-08-12T22:02:24.804Z,1.23
2023-08-12T22:04:53.369Z,1.67
2023-08-12T22:07:21.920Z,1.50
2023-08-12T22:09:50.354Z,1.40
2023-08-12T22:12:19.043Z,1.48
2023-08-12T22:14:48.829Z,1.30
2023-08-12T22:17:17.300Z,1.90
2023-08-12T22:19:48.661Z,1.77
2023-08-12T22:22:19.564Z,1.92
2023-08-12T22:24:48.987Z,1.52
2023-08-12T22:27:17.459Z,1.23
2023-08-12T22:29:45.876Z,1.40
2023-08-12T22:32:16.083Z,1.40
2023-08-12T22:34:44.863Z,1.50
2023-08-12T22:37:13.305Z,1.50
2023-08-12T22:39:42.027Z,1.60
2023-08-12T22:42:09.536Z,1.50
2023-08-12T22:44:38.016Z,1.20
2023-08-12T22:47:06.818Z,1.50
2023-08-12T22:49:36.608Z,1.58
2023-08-12T22:52:05.108Z,1.65
2023-08-12T22:54:33.569Z,1.50
2023-08-12T22:57:02.301Z,1.58
2023-08-12T22:59:30.725Z,1.42
2023-08-12T23:01:59.234Z,1.75
2023-08-12T23:04:27.803Z,1.52
2023-08-12T23:06:57.607Z,1.73
2023-08-12T23:09:26.069Z,1.45
2023-08-12T23:11:54.515Z,1.20
2023-08-12T23:14:22.978Z,1.42
2023-08-12T23:16:51.459Z,1.20
2023-08-12T23:19:19.969Z,1.88
2023-08-12T23:21:48.423Z,1.40
2023-08-12T23:24:18.197Z,1.45
2023-08-12T23:26:46.620Z,1.58
2023-08-12T23:29:15.033Z,1.35
2023-08-12T23:31:43.897Z,1.67
2023-08-12T23:34:12.355Z,1.23
2023-08-12T23:36:40.801Z,1.35
2023-08-12T23:39:10.916Z,1.50
2023-08-12T23:41:40.812Z,1.40
2023-08-12T23:44:09.265Z,1.63
2023-08-12T23:46:37.741Z,1.30
2023-08-12T23:49:06.288Z,1.52
2023-08-12T23:51:34.698Z,1.20
2023-08-12T23:54:03.881Z,1.42
2023-08-12T23:56:32.316Z,1.50
2023-08-12T23:59:02.086Z,1.33
